createdAt,value
2023-06-30T00:00:29.157Z,0
2023-06-30T00:01:45.447Z,0
2023-06-30T00:03:01.761Z,0
2023-06-30T00:04:18.039Z,0
2023-06-30T00:05:34.348Z,0
2023-06-30T00:06:50.630Z,0
2023-06-30T00:08:06.929Z,0
2023-06-30T00:09:23.219Z,0
2023-06-30T00:10:39.523Z,0
2023-06-30T00:11:54.827Z,0
2023-06-30T00:13:11.121Z,0
2023-06-30T00:14:27.401Z,0
2023-06-30T00:15:43.710Z,0
2023-06-30T00:17:00.000Z,0
2023-06-30T00:18:16.292Z,0
2023-06-30T00:19:32.582Z,0
2023-06-30T00:20:48.870Z,0
2023-06-30T00:23:21.474Z,0
2023-06-30T00:24:37.769Z,0
2023-06-30T00:25:54.051Z,0
2023-06-30T00:27:10.342Z,0
2023-06-30T00:28:25.668Z,0
2023-06-30T00:29:41.947Z,0
2023-06-30T00:30:58.258Z,0
2023-06-30T00:32:14.551Z,0
2023-06-30T00:33:30.829Z,0
2023-06-30T00:34:47.121Z,0
2023-06-30T00:36:03.420Z,0
2023-06-30T00:37:19.723Z,0
2023-06-30T00:38:36.010Z,0
2023-06-30T00:39:52.301Z,0
2023-06-30T00:41:08.591Z,0
2023-06-30T00:42:24.892Z,0
2023-06-30T00:43:41.177Z,0
2023-06-30T00:44:56.488Z,0
2023-06-30T00:46:12.785Z,0
2023-06-30T00:47:29.076Z,0
2023-06-30T00:48:45.388Z,0
2023-06-30T00:50:01.678Z,0
2023-06-30T00:51:17.961Z,0
2023-06-30T00:53:50.544Z,0
2023-06-30T00:55:06.842Z,0
2023-06-30T00:56:23.131Z,0
2023-06-30T00:57:39.442Z,0
2023-06-30T00:58:55.731Z,0
2023-06-30T01:00:12.021Z,0
2023-06-30T01:01:27.328Z,0
2023-06-30T01:02:43.631Z,0
2023-06-30T01:03:59.916Z,0
2023-06-30T01:05:16.210Z,0
2023-06-30T01:07:48.806Z,0
2023-06-30T01:09:05.093Z,0
2023-06-30T01:10:21.393Z,0
2023-06-30T01:11:37.674Z,0
2023-06-30T01:12:53.972Z,0
2023-06-30T01:14:10.273Z,0
2023-06-30T01:15:26.565Z,0
2023-06-30T01:16:42.859Z,0
2023-06-30T01:17:58.174Z,0
2023-06-30T01:19:14.455Z,0
2023-06-30T01:20:30.753Z,0
2023-06-30T01:21:47.056Z,0
2023-06-30T01:23:03.333Z,0
2023-06-30T01:24:19.633Z,0
2023-06-30T01:25:35.924Z,0
2023-06-30T01:26:52.218Z,0
2023-06-30T01:28:08.508Z,0
2023-06-30T01:29:24.810Z,0
2023-06-30T01:30:41.104Z,0
2023-06-30T01:31:57.410Z,0
2023-06-30T01:33:13.692Z,0
2023-06-30T01:34:28.993Z,0
2023-06-30T01:35:45.294Z,0
2023-06-30T01:37:01.590Z,0
2023-06-30T01:38:17.889Z,0
2023-06-30T01:39:34.178Z,0
2023-06-30T01:40:50.468Z,0
2023-06-30T01:42:06.769Z,0
2023-06-30T01:43:23.051Z,0
2023-06-30T01:44:39.346Z,0
2023-06-30T01:45:55.640Z,0
2023-06-30T01:47:11.950Z,0
2023-06-30T01:48:28.225Z,0
2023-06-30T01:49:44.530Z,0
2023-06-30T01:50:59.845Z,0
2023-06-30T01:52:16.141Z,0
2023-06-30T01:53:32.434Z,0
2023-06-30T01:54:48.719Z,0
2023-06-30T01:56:05.005Z,0
2023-06-30T01:57:21.300Z,0
2023-06-30T01:58:37.597Z,0
2023-06-30T01:59:53.903Z,0
2023-06-30T02:01:10.179Z,0
2023-06-30T02:02:26.477Z,0
2023-06-30T02:03:42.771Z,0
2023-06-30T02:04:59.075Z,0
2023-06-30T02:06:15.369Z,0
2023-06-30T02:07:30.678Z,0
2023-06-30T02:08:46.000Z,0
2023-06-30T02:10:03.252Z,0
2023-06-30T02:11:19.551Z,0
2023-06-30T02:12:35.848Z,0
2023-06-30T02:13:52.141Z,0
2023-06-30T02:15:08.439Z,0
2023-06-30T02:16:24.735Z,0
2023-06-30T02:17:40.967Z,1
2023-06-30T02:18:57.272Z,0
2023-06-30T02:20:13.555Z,0
2023-06-30T02:21:29.817Z,1
2023-06-30T02:22:46.054Z,1
2023-06-30T02:24:01.312Z,1
2023-06-30T02:25:17.538Z,1
2023-06-30T02:26:33.791Z,2
2023-06-30T02:27:50.036Z,2
2023-06-30T02:29:06.283Z,1
2023-06-30T02:30:22.510Z,1
2023-06-30T02:31:38.763Z,1
2023-06-30T02:32:54.992Z,2
2023-06-30T02:35:27.000Z,1
2023-06-30T02:36:43.705Z,5
2023-06-30T02:37:59.942Z,10
2023-06-30T02:40:32.390Z,7
2023-06-30T02:41:47.638Z,7
2023-06-30T02:43:03.870Z,14
2023-06-30T02:44:20.115Z,17
2023-06-30T02:45:36.345Z,18
2023-06-30T02:46:52.591Z,19
2023-06-30T02:48:08.835Z,18
2023-06-30T02:49:25.080Z,8
2023-06-30T02:50:41.320Z,16
2023-06-30T02:51:57.557Z,14
2023-06-30T02:53:13.791Z,19
2023-06-30T02:54:30.039Z,23
2023-06-30T02:55:46.286Z,28
2023-06-30T02:57:02.526Z,29
2023-06-30T02:58:17.780Z,35
2023-06-30T02:59:34.008Z,37
2023-06-30T03:00:50.249Z,37
2023-06-30T03:02:06.486Z,36
2023-06-30T03:03:21.757Z,33
2023-06-30T03:04:37.991Z,25
2023-06-30T03:05:54.229Z,29
2023-06-30T03:07:10.472Z,49
2023-06-30T03:08:26.717Z,80
2023-06-30T03:09:42.942Z,98
2023-06-30T03:10:59.188Z,93
2023-06-30T03:12:15.433Z,85
2023-06-30T03:13:31.672Z,76
2023-06-30T03:14:47.909Z,78
2023-06-30T03:16:04.140Z,82
2023-06-30T03:17:20.379Z,86
2023-06-30T03:18:36.626Z,96
2023-06-30T03:19:51.889Z,111
2023-06-30T03:21:08.116Z,123
2023-06-30T03:22:24.366Z,136
2023-06-30T03:23:40.602Z,148
2023-06-30T03:24:56.834Z,159
2023-06-30T03:26:13.081Z,170
2023-06-30T03:27:29.331Z,178
2023-06-30T03:28:45.569Z,180
2023-06-30T03:30:01.800Z,178
2023-06-30T03:31:18.034Z,178
2023-06-30T03:32:34.289Z,172
2023-06-30T03:33:50.516Z,166
2023-06-30T03:35:06.757Z,172
2023-06-30T03:36:22.026Z,172
2023-06-30T03:37:38.247Z,184
2023-06-30T03:38:54.489Z,195
2023-06-30T03:40:10.734Z,197
2023-06-30T03:41:26.981Z,190
2023-06-30T03:42:43.217Z,183
2023-06-30T03:43:59.460Z,180
2023-06-30T03:45:15.705Z,184
2023-06-30T03:46:31.943Z,197
2023-06-30T03:49:04.417Z,240
2023-06-30T03:50:20.653Z,268
2023-06-30T03:51:36.901Z,295
2023-06-30T03:52:52.149Z,321
2023-06-30T03:54:08.396Z,344
2023-06-30T03:56:40.877Z,389
2023-06-30T03:57:57.110Z,423
2023-06-30T03:59:13.348Z,479
2023-06-30T04:00:29.595Z,536
2023-06-30T04:01:45.822Z,576
2023-06-30T04:03:02.065Z,594
2023-06-30T04:04:18.311Z,581
2023-06-30T04:05:34.549Z,554
2023-06-30T04:06:50.792Z,552
2023-06-30T04:08:07.026Z,574
2023-06-30T04:09:22.298Z,613
2023-06-30T04:10:38.534Z,642
2023-06-30T04:11:54.764Z,657
2023-06-30T04:13:11.003Z,671
2023-06-30T04:14:27.239Z,717
2023-06-30T04:15:43.480Z,803
2023-06-30T04:16:59.718Z,911
2023-06-30T04:18:15.966Z,1036
2023-06-30T04:19:32.210Z,1153
2023-06-30T04:20:48.444Z,1260
2023-06-30T04:22:04.687Z,1373
2023-06-30T04:23:20.928Z,1490
2023-06-30T04:24:37.167Z,1617
2023-06-30T04:25:52.413Z,1731
2023-06-30T04:27:08.662Z,1829
2023-06-30T04:28:24.890Z,1944
2023-06-30T04:29:41.148Z,2047
2023-06-30T04:30:57.384Z,2127
2023-06-30T04:32:13.623Z,2216
2023-06-30T04:33:29.860Z,2280
2023-06-30T04:34:46.090Z,2340
2023-06-30T04:36:02.332Z,2411
2023-06-30T04:37:18.577Z,2466
2023-06-30T04:38:34.808Z,2512
2023-06-30T04:39:51.061Z,2543
2023-06-30T04:41:07.295Z,2560
2023-06-30T04:42:22.560Z,2574
2023-06-30T04:43:38.801Z,2580
2023-06-30T04:44:55.028Z,2572
2023-06-30T04:46:11.265Z,2587
2023-06-30T04:47:27.514Z,2620
2023-06-30T04:48:43.751Z,2652
2023-06-30T04:49:59.995Z,2671
2023-06-30T04:51:16.227Z,2693
2023-06-30T04:52:32.480Z,2722
2023-06-30T04:53:48.703Z,2761
2023-06-30T04:55:04.946Z,2834
2023-06-30T04:57:37.436Z,3025
2023-06-30T04:58:52.682Z,3091
2023-06-30T05:00:08.928Z,3142
2023-06-30T05:01:25.164Z,3167
2023-06-30T05:02:41.408Z,3210
2023-06-30T05:03:57.645Z,3259
2023-06-30T05:05:13.889Z,3307
2023-06-30T05:06:30.127Z,3348
2023-06-30T05:07:46.354Z,3399
2023-06-30T05:09:02.596Z,3482
2023-06-30T05:10:18.853Z,3616
2023-06-30T05:11:35.085Z,3781
2023-06-30T05:12:51.329Z,3930
2023-06-30T05:14:07.562Z,4081
2023-06-30T05:15:22.829Z,4194
2023-06-30T05:16:39.051Z,4308
2023-06-30T05:17:55.298Z,4439
2023-06-30T05:20:27.770Z,4605
2023-06-30T05:21:44.024Z,4604
2023-06-30T05:23:00.260Z,4587
2023-06-30T05:25:32.746Z,4536
2023-06-30T05:26:48.980Z,4563
2023-06-30T05:28:05.215Z,4622
2023-06-30T05:29:21.465Z,4670
2023-06-30T05:30:37.687Z,4746
2023-06-30T05:31:52.952Z,4836
2023-06-30T05:33:09.186Z,4948
2023-06-30T05:35:41.674Z,5072
2023-06-30T05:36:56.925Z,5131
2023-06-30T05:38:12.198Z,5184
2023-06-30T05:39:28.423Z,5186
2023-06-30T05:40:44.676Z,5197
2023-06-30T05:42:00.903Z,5275
2023-06-30T05:43:17.141Z,5288
2023-06-30T05:44:33.394Z,5376
2023-06-30T05:45:49.622Z,5505
2023-06-30T05:47:05.861Z,5679
2023-06-30T05:48:22.106Z,5904
2023-06-30T05:49:37.363Z,5896
2023-06-30T05:50:52.615Z,5831
2023-06-30T05:52:08.871Z,5665
2023-06-30T05:53:25.111Z,5571
2023-06-30T05:54:41.352Z,5508
2023-06-30T05:55:57.580Z,5417
2023-06-30T05:57:13.813Z,5155
2023-06-30T05:58:30.056Z,4967
2023-06-30T05:59:46.300Z,4851
2023-06-30T06:01:02.543Z,4823
2023-06-30T06:02:18.774Z,4997
2023-06-30T06:03:35.032Z,5301
2023-06-30T06:04:51.260Z,5595
2023-06-30T06:06:07.493Z,5874
2023-06-30T06:07:22.766Z,6041
2023-06-30T06:08:38.998Z,6134
2023-06-30T06:09:55.236Z,6131
2023-06-30T06:11:11.476Z,6376
2023-06-30T06:12:27.714Z,6537
2023-06-30T06:13:43.968Z,6497
2023-06-30T06:15:00.189Z,6374
2023-06-30T06:16:16.432Z,6389
2023-06-30T06:17:32.684Z,6657
2023-06-30T06:18:48.908Z,6877
2023-06-30T06:20:05.147Z,6876
2023-06-30T06:21:21.393Z,7175
2023-06-30T06:22:37.633Z,7146
2023-06-30T06:23:52.903Z,7125
2023-06-30T06:25:09.134Z,6942
2023-06-30T06:26:25.380Z,6820
2023-06-30T06:27:41.617Z,6713
2023-06-30T06:28:57.842Z,6734
2023-06-30T06:30:14.099Z,6838
2023-06-30T06:31:30.327Z,6913
2023-06-30T06:32:46.561Z,6966
2023-06-30T06:34:02.817Z,6945
2023-06-30T06:35:19.057Z,6821
2023-06-30T06:36:35.295Z,6865
2023-06-30T06:37:51.539Z,6958
2023-06-30T06:39:07.769Z,6943
2023-06-30T06:40:23.017Z,6905
2023-06-30T06:41:39.256Z,7104
2023-06-30T06:42:55.503Z,7358
2023-06-30T06:44:11.747Z,7432
2023-06-30T06:45:27.981Z,7428
2023-06-30T06:46:44.223Z,7831
2023-06-30T06:48:00.458Z,7773
2023-06-30T06:49:16.701Z,7700
2023-06-30T06:50:32.950Z,7762
2023-06-30T06:51:49.191Z,8341
2023-06-30T06:53:05.428Z,8624
2023-06-30T06:54:21.669Z,8635
2023-06-30T06:55:37.896Z,8391
2023-06-30T06:56:53.169Z,8622
2023-06-30T06:58:09.403Z,8857
2023-06-30T06:59:25.649Z,9201
2023-06-30T07:00:41.873Z,9401
2023-06-30T07:01:58.122Z,9787
2023-06-30T07:04:30.592Z,9630
2023-06-30T07:07:03.090Z,8193
2023-06-30T07:08:19.315Z,7671
2023-06-30T07:09:35.565Z,7144
2023-06-30T07:10:51.810Z,6460
2023-06-30T07:12:08.030Z,6355
2023-06-30T07:13:23.298Z,6598
2023-06-30T07:14:39.536Z,7458
2023-06-30T07:15:55.786Z,8292
2023-06-30T07:17:12.020Z,8751
2023-06-30T07:18:27.280Z,9234
2023-06-30T07:19:43.515Z,9450
2023-06-30T07:20:59.748Z,9101
2023-06-30T07:22:16.001Z,8425
2023-06-30T07:23:32.237Z,8721
2023-06-30T07:24:48.484Z,9796
2023-06-30T07:26:04.708Z,9700
2023-06-30T07:27:20.963Z,8885
2023-06-30T07:28:37.206Z,8524
2023-06-30T07:29:53.441Z,9154
2023-06-30T07:31:09.686Z,9252
2023-06-30T07:32:25.920Z,8619
2023-06-30T07:33:42.165Z,9469
2023-06-30T07:34:57.414Z,11479
2023-06-30T07:36:13.643Z,10311
2023-06-30T07:37:29.891Z,8135
2023-06-30T07:38:46.125Z,5664
2023-06-30T07:40:02.366Z,4937
2023-06-30T07:41:18.612Z,5782
2023-06-30T07:42:34.844Z,6634
2023-06-30T07:43:51.088Z,7690
2023-06-30T07:45:07.333Z,8975
2023-06-30T07:46:23.571Z,8929
2023-06-30T07:47:39.821Z,8175
2023-06-30T07:48:56.049Z,6979
2023-06-30T07:50:12.292Z,5875
2023-06-30T07:51:27.543Z,5111
2023-06-30T07:52:43.790Z,5700
2023-06-30T07:54:00.034Z,7531
2023-06-30T07:55:16.260Z,7549
2023-06-30T07:56:32.510Z,6377
2023-06-30T07:57:48.744Z,6900
2023-06-30T08:00:21.236Z,8008
2023-06-30T08:01:37.459Z,9258
2023-06-30T08:02:53.712Z,8476
2023-06-30T08:04:09.938Z,9130
2023-06-30T08:05:26.189Z,8910
2023-06-30T08:06:42.417Z,9538
2023-06-30T08:07:57.000Z,9964
2023-06-30T08:09:13.930Z,9543
2023-06-30T08:10:30.161Z,9227
2023-06-30T08:11:46.402Z,9946
2023-06-30T08:13:02.643Z,9545
2023-06-30T08:14:18.889Z,10345
2023-06-30T08:15:35.115Z,9819
2023-06-30T08:16:51.369Z,9791
2023-06-30T08:18:07.611Z,9689
2023-06-30T08:19:23.852Z,8999
2023-06-30T08:20:40.092Z,8026
2023-06-30T08:21:56.314Z,7861
2023-06-30T08:23:12.569Z,7990
2023-06-30T08:24:27.825Z,9584
2023-06-30T08:25:44.065Z,11067
2023-06-30T08:27:00.296Z,11455
2023-06-30T08:28:16.538Z,10845
2023-06-30T08:29:32.771Z,9744
2023-06-30T08:30:49.013Z,9807
2023-06-30T08:32:05.266Z,10459
2023-06-30T08:33:21.495Z,9718
2023-06-30T08:34:37.738Z,8632
2023-06-30T08:35:53.983Z,8507
2023-06-30T08:37:10.221Z,8027
2023-06-30T08:38:26.460Z,9273
2023-06-30T08:39:42.695Z,8737
2023-06-30T08:40:57.956Z,6963
2023-06-30T08:42:14.193Z,6793
2023-06-30T08:43:30.445Z,6243
2023-06-30T08:44:46.667Z,6122
2023-06-30T08:46:02.909Z,6525
2023-06-30T08:47:19.158Z,7377
2023-06-30T08:48:35.396Z,8574
2023-06-30T08:49:51.629Z,9064
2023-06-30T08:51:07.879Z,9112
2023-06-30T08:53:40.349Z,9882
2023-06-30T08:54:56.588Z,10430
2023-06-30T08:56:12.831Z,10011
2023-06-30T08:57:28.082Z,9896
2023-06-30T08:58:44.340Z,11046
2023-06-30T09:00:00.576Z,10044
2023-06-30T09:01:16.804Z,11534
2023-06-30T09:02:33.059Z,10946
2023-06-30T09:03:49.295Z,10236
2023-06-30T09:05:05.525Z,10409
2023-06-30T09:06:21.762Z,10191
2023-06-30T09:07:38.012Z,9170
2023-06-30T09:08:54.256Z,8660
2023-06-30T09:10:10.490Z,7781
2023-06-30T09:11:26.732Z,6985
2023-06-30T09:12:42.963Z,8218
2023-06-30T09:13:58.235Z,8967
2023-06-30T09:16:30.709Z,9072
2023-06-30T09:17:46.956Z,9150
2023-06-30T09:19:03.192Z,8850
2023-06-30T09:20:19.422Z,9175
2023-06-30T09:21:35.659Z,10400
2023-06-30T09:24:08.158Z,11386
2023-06-30T09:25:24.388Z,11199
2023-06-30T09:26:40.619Z,9755
2023-06-30T09:27:56.864Z,9128
2023-06-30T09:29:13.112Z,7274
2023-06-30T09:30:28.370Z,6299
2023-06-30T09:31:44.597Z,5936
2023-06-30T09:33:00.838Z,6030
2023-06-30T09:34:17.095Z,6393
2023-06-30T09:35:33.323Z,7103
2023-06-30T09:36:49.576Z,8632
2023-06-30T09:38:05.795Z,9938
2023-06-30T09:39:22.037Z,10827
2023-06-30T09:40:38.290Z,11609
2023-06-30T09:41:54.530Z,11254
2023-06-30T09:43:10.763Z,10767
2023-06-30T09:44:27.006Z,10193
2023-06-30T09:45:43.255Z,10727
2023-06-30T09:46:58.497Z,11849
2023-06-30T09:48:14.741Z,11681
2023-06-30T09:49:30.987Z,11092
2023-06-30T09:50:47.231Z,11163
2023-06-30T09:52:03.454Z,11446
2023-06-30T09:53:19.710Z,11320
2023-06-30T09:54:35.944Z,11295
2023-06-30T09:55:52.189Z,11693
2023-06-30T09:57:08.414Z,12288
2023-06-30T09:58:24.664Z,12896
2023-06-30T09:59:40.906Z,13019
2023-06-30T10:02:13.366Z,12952
2023-06-30T10:03:28.632Z,11900
2023-06-30T10:04:44.855Z,11663
2023-06-30T10:06:01.097Z,10612
2023-06-30T10:07:17.347Z,9084
2023-06-30T10:08:33.592Z,7964
2023-06-30T10:09:49.824Z,7954
2023-06-30T10:12:22.299Z,8295
2023-06-30T10:13:38.541Z,6928
2023-06-30T10:14:54.791Z,5466
2023-06-30T10:16:11.035Z,4779
2023-06-30T10:17:27.271Z,4533
2023-06-30T10:18:43.508Z,4463
2023-06-30T10:19:58.770Z,4405
2023-06-30T10:21:14.992Z,4171
2023-06-30T10:22:31.239Z,3867
2023-06-30T10:23:47.487Z,3538
2023-06-30T10:25:03.719Z,3458
2023-06-30T10:26:19.971Z,3138
2023-06-30T10:27:36.207Z,2566
2023-06-30T10:28:52.445Z,2200
2023-06-30T10:30:08.692Z,2030
2023-06-30T10:32:41.165Z,2432
2023-06-30T10:33:57.412Z,2682
2023-06-30T10:35:13.638Z,2801
2023-06-30T10:36:28.894Z,2847
2023-06-30T10:37:45.139Z,3048
2023-06-30T10:39:01.375Z,3197
2023-06-30T10:40:17.612Z,3400
2023-06-30T10:41:33.851Z,3670
2023-06-30T10:42:50.105Z,3869
2023-06-30T10:44:06.345Z,4062
2023-06-30T10:45:22.569Z,4356
2023-06-30T10:47:55.055Z,4998
2023-06-30T10:49:11.293Z,5044
2023-06-30T10:50:27.544Z,5069
2023-06-30T10:51:43.784Z,5376
2023-06-30T10:53:00.007Z,5971
2023-06-30T10:54:15.275Z,6712
2023-06-30T10:55:31.508Z,7569
2023-06-30T10:56:47.759Z,8419
2023-06-30T10:58:03.995Z,8947
2023-06-30T10:59:20.241Z,9507
2023-06-30T11:00:36.471Z,9855
2023-06-30T11:01:52.713Z,9798
2023-06-30T11:03:08.962Z,9788
2023-06-30T11:04:25.201Z,9933
2023-06-30T11:05:41.435Z,10299
2023-06-30T11:06:57.675Z,10429
2023-06-30T11:08:13.916Z,10584
2023-06-30T11:09:30.162Z,10978
2023-06-30T11:10:45.409Z,11404
2023-06-30T11:12:01.652Z,11591
2023-06-30T11:13:17.893Z,10622
2023-06-30T11:14:34.124Z,9648
2023-06-30T11:15:50.374Z,9824
2023-06-30T11:17:06.605Z,10457
2023-06-30T11:18:22.853Z,10048
2023-06-30T11:19:39.078Z,9457
2023-06-30T11:20:55.331Z,10577
2023-06-30T11:22:11.575Z,10952
2023-06-30T11:23:27.799Z,11106
2023-06-30T11:26:00.299Z,9890
2023-06-30T11:27:15.552Z,8058
2023-06-30T11:28:31.790Z,8158
2023-06-30T11:29:48.031Z,8389
2023-06-30T11:31:04.255Z,7836
2023-06-30T11:32:20.503Z,6990
2023-06-30T11:33:35.773Z,7631
2023-06-30T11:34:52.013Z,8309
2023-06-30T11:36:08.238Z,9016
2023-06-30T11:37:24.481Z,8421
2023-06-30T11:38:40.731Z,8093
2023-06-30T11:39:56.958Z,8878
2023-06-30T11:41:13.212Z,9642
2023-06-30T11:42:29.438Z,8723
2023-06-30T11:43:45.689Z,8464
2023-06-30T11:46:18.160Z,9024
2023-06-30T11:47:34.406Z,9449
2023-06-30T11:48:50.655Z,9723
2023-06-30T11:50:05.894Z,9749
2023-06-30T11:51:22.142Z,9614
2023-06-30T11:52:38.372Z,9356
2023-06-30T11:53:54.630Z,8975
2023-06-30T11:55:10.861Z,8559
2023-06-30T11:56:27.103Z,8030
2023-06-30T11:57:43.341Z,7601
2023-06-30T11:58:59.571Z,7229
2023-06-30T12:00:15.817Z,7040
2023-06-30T12:01:32.068Z,6898
2023-06-30T12:02:48.309Z,7033
2023-06-30T12:04:04.546Z,6502
2023-06-30T12:05:20.789Z,5937
2023-06-30T12:06:36.038Z,5984
2023-06-30T12:07:52.269Z,5921
2023-06-30T12:09:08.522Z,6408
2023-06-30T12:10:24.756Z,7126
2023-06-30T12:12:57.242Z,7456
2023-06-30T12:14:13.481Z,6540
2023-06-30T12:15:29.711Z,5895
2023-06-30T12:16:45.964Z,5275
2023-06-30T12:18:02.203Z,5001
2023-06-30T12:19:18.440Z,4821
2023-06-30T12:21:50.921Z,3826
2023-06-30T12:23:07.154Z,3591
2023-06-30T12:24:23.394Z,3484
2023-06-30T12:25:38.643Z,3398
2023-06-30T12:26:54.896Z,3504
2023-06-30T12:28:11.125Z,3777
2023-06-30T12:29:27.367Z,4045
2023-06-30T12:30:43.611Z,4303
2023-06-30T12:31:59.856Z,4493
2023-06-30T12:33:16.091Z,4773
2023-06-30T12:34:32.328Z,5255
2023-06-30T12:35:48.564Z,5801
2023-06-30T12:37:04.817Z,6232
2023-06-30T12:38:21.057Z,6512
2023-06-30T12:39:37.298Z,6722
2023-06-30T12:40:53.533Z,6885
2023-06-30T12:42:08.784Z,7127
2023-06-30T12:43:25.032Z,7668
2023-06-30T12:44:41.274Z,8325
2023-06-30T12:45:57.513Z,9041
2023-06-30T12:47:13.752Z,9795
2023-06-30T12:49:46.223Z,11193
2023-06-30T12:51:02.462Z,11349
2023-06-30T12:52:18.700Z,11226
2023-06-30T12:53:34.953Z,10847
2023-06-30T12:54:51.195Z,10189
2023-06-30T12:56:07.437Z,9519
2023-06-30T12:57:23.663Z,8688
2023-06-30T12:58:38.931Z,8761
2023-06-30T12:59:55.157Z,9149
2023-06-30T13:01:11.395Z,9160
2023-06-30T13:03:43.874Z,8793
2023-06-30T13:05:00.112Z,8791
2023-06-30T13:06:16.372Z,8935
2023-06-30T13:07:32.606Z,8908
2023-06-30T13:08:48.837Z,8273
2023-06-30T13:10:05.071Z,7059
2023-06-30T13:11:21.000Z,5965
2023-06-30T13:12:37.553Z,5549
2023-06-30T13:13:53.810Z,5663
2023-06-30T13:15:09.064Z,5703
2023-06-30T13:16:25.291Z,5216
2023-06-30T13:17:41.533Z,4593
2023-06-30T13:18:57.775Z,3986
2023-06-30T13:20:14.017Z,3423
2023-06-30T13:21:30.267Z,2784
2023-06-30T13:22:46.493Z,2218
2023-06-30T13:24:02.727Z,1905
2023-06-30T13:25:18.971Z,1850
2023-06-30T13:27:51.453Z,1848
2023-06-30T13:29:07.696Z,1664
2023-06-30T13:30:23.943Z,1644
2023-06-30T13:31:39.189Z,1798
2023-06-30T13:32:55.431Z,1802
2023-06-30T13:34:11.669Z,1657
2023-06-30T13:35:27.910Z,1743
2023-06-30T13:36:44.142Z,1746
2023-06-30T13:38:00.385Z,1487
2023-06-30T13:39:16.621Z,1329
2023-06-30T13:40:32.873Z,1446
2023-06-30T13:41:49.114Z,1444
2023-06-30T13:43:05.357Z,1366
2023-06-30T13:44:21.600Z,1286
2023-06-30T13:45:37.835Z,1205
2023-06-30T13:46:54.065Z,1205
2023-06-30T13:48:09.320Z,1397
2023-06-30T13:49:25.568Z,1641
2023-06-30T13:50:41.797Z,1890
2023-06-30T13:51:58.053Z,2066
2023-06-30T13:53:14.283Z,2259
2023-06-30T13:54:30.522Z,2481
2023-06-30T13:55:46.764Z,2527
2023-06-30T13:57:03.014Z,2374
2023-06-30T13:58:19.251Z,2285
2023-06-30T13:59:35.475Z,2324
2023-06-30T14:00:51.713Z,2467
2023-06-30T14:02:07.968Z,2634
2023-06-30T14:03:24.208Z,2578
2023-06-30T14:04:39.452Z,2455
2023-06-30T14:05:55.696Z,2388
2023-06-30T14:07:11.929Z,2359
2023-06-30T14:08:28.183Z,2465
2023-06-30T14:09:44.426Z,2727
2023-06-30T14:11:00.663Z,2938
2023-06-30T14:12:16.892Z,2905
2023-06-30T14:13:33.134Z,2721
2023-06-30T14:14:49.374Z,2621
2023-06-30T14:16:05.608Z,2475
2023-06-30T14:17:21.853Z,2389
2023-06-30T14:18:38.098Z,2312
2023-06-30T14:21:10.586Z,1817
2023-06-30T14:22:26.941Z,1688
2023-06-30T14:23:43.176Z,1628
2023-06-30T14:24:59.426Z,1685
2023-06-30T14:26:15.664Z,1767
2023-06-30T14:28:48.133Z,1900
2023-06-30T14:30:04.371Z,1956
2023-06-30T14:31:20.608Z,2014
2023-06-30T14:32:36.854Z,2032
2023-06-30T14:33:53.102Z,2139
2023-06-30T14:36:25.578Z,2586
2023-06-30T14:37:40.842Z,1962
2023-06-30T14:38:56.093Z,1227
2023-06-30T14:40:12.330Z,1493
2023-06-30T14:41:28.580Z,1681
2023-06-30T14:42:44.814Z,1567
2023-06-30T14:44:01.047Z,1447
2023-06-30T14:45:17.294Z,1528
2023-06-30T14:46:33.528Z,1648
2023-06-30T14:47:49.773Z,1602
2023-06-30T14:49:06.002Z,1296
2023-06-30T14:50:21.270Z,1272
2023-06-30T14:51:36.519Z,1347
2023-06-30T14:52:52.774Z,1497
2023-06-30T14:54:09.002Z,1629
2023-06-30T14:55:25.258Z,1716
2023-06-30T14:56:41.496Z,1817
2023-06-30T14:57:57.722Z,1848
2023-06-30T14:59:13.974Z,1919
2023-06-30T15:00:30.207Z,1967
2023-06-30T15:01:46.442Z,2120
2023-06-30T15:03:02.689Z,2371
2023-06-30T15:04:18.928Z,2616
2023-06-30T15:05:35.176Z,2731
2023-06-30T15:06:51.407Z,2705
2023-06-30T15:08:06.669Z,2525
2023-06-30T15:09:22.909Z,2382
2023-06-30T15:10:39.149Z,2394
2023-06-30T15:11:55.380Z,2603
2023-06-30T15:13:11.617Z,2810
2023-06-30T15:14:27.855Z,2864
2023-06-30T15:15:44.093Z,2838
2023-06-30T15:17:00.342Z,2918
2023-06-30T15:18:16.570Z,3205
2023-06-30T15:19:32.815Z,3547
2023-06-30T15:20:49.060Z,3905
2023-06-30T15:22:05.305Z,4209
2023-06-30T15:23:21.535Z,4239
2023-06-30T15:24:36.798Z,4105
2023-06-30T15:25:53.045Z,3974
2023-06-30T15:27:09.275Z,3891
2023-06-30T15:28:25.512Z,4068
2023-06-30T15:29:41.747Z,4241
2023-06-30T15:30:57.997Z,4413
2023-06-30T15:32:14.241Z,4547
2023-06-30T15:33:30.471Z,4704
2023-06-30T15:34:46.707Z,4798
2023-06-30T15:36:02.943Z,5271
2023-06-30T15:37:19.191Z,5460
2023-06-30T15:38:35.428Z,5617
2023-06-30T15:39:51.673Z,5669
2023-06-30T15:41:06.920Z,5234
2023-06-30T15:42:23.167Z,7674
2023-06-30T15:43:39.399Z,6471
2023-06-30T15:44:55.641Z,6139
2023-06-30T15:46:11.889Z,4950
2023-06-30T15:47:28.133Z,6180
2023-06-30T15:48:43.379Z,6350
2023-06-30T15:49:59.634Z,5655
2023-06-30T15:51:15.876Z,3873
2023-06-30T15:52:32.111Z,3703
2023-06-30T15:53:48.340Z,3093
2023-06-30T15:55:04.594Z,3076
2023-06-30T15:56:20.818Z,1474
2023-06-30T15:57:37.061Z,1464
2023-06-30T15:58:53.310Z,2225
2023-06-30T16:00:09.000Z,2876
2023-06-30T16:01:25.793Z,2356
2023-06-30T16:02:42.027Z,2790
2023-06-30T16:03:58.262Z,2497
2023-06-30T16:05:13.524Z,3064
2023-06-30T16:06:29.000Z,3710
2023-06-30T16:07:45.994Z,2879
2023-06-30T16:09:02.235Z,2215
2023-06-30T16:10:18.478Z,1696
2023-06-30T16:11:34.716Z,1918
2023-06-30T16:12:50.965Z,2409
2023-06-30T16:14:07.199Z,3587
2023-06-30T16:15:23.440Z,3464
2023-06-30T16:16:39.670Z,2944
2023-06-30T16:17:55.910Z,2483
2023-06-30T16:19:12.150Z,3473
2023-06-30T16:20:28.405Z,3667
2023-06-30T16:21:43.646Z,3514
2023-06-30T16:22:59.899Z,3533
2023-06-30T16:24:16.127Z,3163
2023-06-30T16:25:32.379Z,3123
2023-06-30T16:26:48.618Z,3076
2023-06-30T16:28:04.849Z,3539
2023-06-30T16:29:21.088Z,3824
2023-06-30T16:30:37.336Z,4005
2023-06-30T16:31:53.578Z,4254
2023-06-30T16:33:09.822Z,3621
2023-06-30T16:34:26.047Z,3595
2023-06-30T16:35:42.291Z,4437
2023-06-30T16:38:14.779Z,6122
2023-06-30T16:39:30.032Z,5501
2023-06-30T16:40:46.276Z,4602
2023-06-30T16:42:02.508Z,3819
2023-06-30T16:43:18.753Z,3476
2023-06-30T16:45:51.225Z,2693
2023-06-30T16:47:07.463Z,2550
2023-06-30T16:48:23.709Z,2598
2023-06-30T16:49:39.939Z,2570
2023-06-30T16:50:56.191Z,2454
2023-06-30T16:53:28.659Z,2068
2023-06-30T16:54:43.918Z,1729
2023-06-30T16:55:59.192Z,1668
2023-06-30T16:58:31.665Z,1831
2023-06-30T16:59:47.910Z,1590
2023-06-30T17:01:04.133Z,1482
2023-06-30T17:02:20.375Z,1222
2023-06-30T17:03:36.623Z,963
2023-06-30T17:04:52.854Z,1003
2023-06-30T17:06:09.091Z,893
2023-06-30T17:07:25.333Z,904
2023-06-30T17:08:41.573Z,1143
2023-06-30T17:09:57.824Z,1045
2023-06-30T17:11:14.050Z,959
2023-06-30T17:12:29.326Z,799
2023-06-30T17:13:45.554Z,631
2023-06-30T17:15:01.803Z,529
2023-06-30T17:16:18.036Z,507
2023-06-30T17:17:34.284Z,515
2023-06-30T17:18:50.519Z,615
2023-06-30T17:20:06.764Z,651
2023-06-30T17:21:22.017Z,605
2023-06-30T17:23:53.506Z,595
2023-06-30T17:25:09.760Z,585
2023-06-30T17:26:25.996Z,582
2023-06-30T17:27:42.230Z,576
2023-06-30T17:28:58.473Z,583
2023-06-30T17:30:14.720Z,601
2023-06-30T17:31:30.946Z,617
2023-06-30T17:32:47.199Z,608
2023-06-30T17:34:03.426Z,676
2023-06-30T17:35:19.673Z,780
2023-06-30T17:36:35.910Z,836
2023-06-30T17:37:52.155Z,818
2023-06-30T17:39:07.410Z,757
2023-06-30T17:40:23.649Z,734
2023-06-30T17:41:39.888Z,731
2023-06-30T17:42:56.117Z,716
2023-06-30T17:44:12.362Z,855
2023-06-30T17:45:28.613Z,1016
2023-06-30T17:46:44.854Z,1172
2023-06-30T17:48:01.074Z,1559
2023-06-30T17:49:17.314Z,1605
2023-06-30T17:50:33.557Z,1640
2023-06-30T17:51:49.801Z,1597
2023-06-30T17:53:06.039Z,1876
2023-06-30T17:55:38.519Z,2229
2023-06-30T17:56:54.878Z,2031
2023-06-30T17:58:11.127Z,1786
2023-06-30T17:59:27.352Z,1604